Terminal Aerodrome Forecast
Issued by NWS Amarillo, TX

Home | Current Version | Previous Version | Text Only | Print | Product List | Glossary On
Versions: 1 2 3 4 5 6 7 8 9 10 11 12 13 14 15 16 17 18 19 20
000
FTUS44 KAMA 071600 AAB
TAFAMA
TAF AMD
KAMA 071602Z 0716/0812 02013KT 1/2SM FG OVC004
      TEMPO 0716/0720 5SM HZ OVC009
     FM072000 02013KT P6SM OVC010
     FM080200 02008KT 3SM BR OVC008=

USA.gov is the U.S. government's official web portal to all federal, state and local government web resources and services.